Time;durP1;ratioP1;P1;durP2;ratioP2;P2;SDS_P1;SDS_P2;PMS_P1;PMS_P2;Temp;Humidity;BMP_temperature;BMP_pressure;BME280_temperature;BME280_humidity;BME280_pressure;Samples;Min_cycle;Max_cycle;Signal;HPM_P1;HPM_P2
2021/12/04 00:02:17;;;;;;;391.23;178.38;;;;;;;13.93;100.00;99013.75;5070384;28;20052;-65
2021/12/04 00:05:07;;;;;;;374.70;171.55;;;;;;;13.92;100.00;99010.31;5078193;28;20052;-65
2021/12/04 00:07:57;;;;;;;371.38;174.05;;;;;;;14.01;100.00;99015.16;5089706;28;20056;-65
2021/12/04 00:10:40;;;;;;;360.83;169.00;;;;;;;14.01;100.00;99014.31;5081584;28;20052;-66
2021/12/04 00:13:36;;;;;;;358.80;164.48;;;;;;;13.93;100.00;99017.19;5085031;28;20073;-65
2021/12/04 00:16:13;;;;;;;341.17;161.15;;;;;;;13.89;100.00;99007.84;5069681;28;20044;-65
2021/12/04 00:19:02;;;;;;;351.25;164.30;;;;;;;13.89;100.00;99007.03;5069899;28;20063;-65
2021/12/04 00:21:45;;;;;;;340.80;162.57;;;;;;;13.81;100.00;99007.28;5069682;28;20487;-65
2021/12/04 00:24:35;;;;;;;349.67;160.65;;;;;;;13.86;100.00;99010.56;5069325;28;20151;-65
2021/12/04 00:27:24;;;;;;;348.45;159.88;;;;;;;13.88;100.00;99011.34;5068928;28;20048;-66
2021/12/04 00:30:13;;;;;;;348.58;158.85;;;;;;;13.95;100.00;99005.03;5069460;28;20045;-65
2021/12/04 00:33:06;;;;;;;339.67;160.98;;;;;;;14.02;100.00;99003.88;5068744;28;20506;-65
2021/12/04 00:35:54;;;;;;;348.30;159.15;;;;;;;14.03;100.00;99008.16;5068995;28;20048;-65
2021/12/04 00:51:03;;;;;;;361.67;160.68;;;;;;;14.15;100.00;99006.84;5049195;28;20606;-66
2021/12/04 00:53:39;;;;;;;333.85;158.73;;;;;;;14.38;100.00;99011.09;5052410;28;20048;-65
2021/12/04 00:56:28;;;;;;;341.15;158.80;;;;;;;14.44;100.00;99016.94;5068960;28;20487;-65
2021/12/04 00:59:11;;;;;;;332.05;156.50;;;;;;;14.30;100.00;99014.00;5067971;28;21057;-65
2021/12/04 01:02:01;;;;;;;334.05;156.13;;;;;;;14.14;100.00;99012.91;5067915;28;20044;-66
2021/12/04 01:04:43;;;;;;;324.55;157.48;;;;;;;14.04;100.00;99009.03;5059109;28;20060;-65
2021/12/04 01:07:33;;;;;;;357.17;163.93;;;;;;;13.90;100.00;99009.53;5059740;28;20053;-65
2021/12/04 01:10:22;;;;;;;337.15;160.75;;;;;;;13.86;100.00;99015.75;5072856;28;20140;-65
2021/12/04 01:13:10;;;;;;;346.98;162.55;;;;;;;13.70;100.00;99024.97;5068732;28;20044;-65
2021/12/04 01:16:00;;;;;;;341.83;162.18;;;;;;;13.79;100.00;99027.22;5062657;28;20052;-65
2021/12/04 01:18:50;;;;;;;343.35;161.90;;;;;;;13.73;100.00;99030.88;5060684;28;20072;-65
2021/12/04 01:21:38;;;;;;;338.27;160.45;;;;;;;13.86;100.00;99038.19;5068050;28;20080;-65
2021/12/04 01:24:21;;;;;;;339.13;161.13;;;;;;;13.72;100.00;99039.56;5067852;28;20141;-65
2021/12/04 01:27:13;;;;;;;353.98;161.27;;;;;;;13.76;100.00;99035.94;5047528;28;20136;-66
2021/12/04 01:29:56;;;;;;;338.95;162.02;;;;;;;13.68;100.00;99039.72;5058733;28;20052;-65
2021/12/04 01:32:44;;;;;;;346.83;165.48;;;;;;;13.59;100.00;99042.66;5068061;28;20110;-65
2021/12/04 01:35:33;;;;;;;364.70;159.95;;;;;;;13.48;100.00;99039.63;5070387;28;20151;-65
2021/12/04 01:38:16;;;;;;;345.98;160.02;;;;;;;13.40;100.00;99038.16;5068309;28;20058;-66
2021/12/04 01:41:05;;;;;;;330.15;158.63;;;;;;;13.60;100.00;99039.16;5050872;28;20055;-65
2021/12/04 01:43:48;;;;;;;340.52;160.35;;;;;;;13.58;100.00;99040.94;5042268;28;20107;-65
2021/12/04 01:46:45;;;;;;;320.75;157.30;;;;;;;13.59;100.00;99042.66;5036561;28;20771;-65
2021/12/04 01:49:22;;;;;;;334.75;157.52;;;;;;;13.48;100.00;99044.78;5041330;28;20788;-65
2021/12/04 01:52:11;;;;;;;351.67;161.75;;;;;;;13.45;100.00;99050.06;5035086;28;20098;-65
2021/12/04 01:54:54;;;;;;;329.55;155.07;;;;;;;13.55;100.00;99041.94;5046859;28;20048;-65
2021/12/04 01:57:43;;;;;;;349.83;158.40;;;;;;;13.57;100.00;99052.22;5047914;28;20051;-65
2021/12/04 02:00:25;;;;;;;337.02;159.13;;;;;;;13.77;100.00;99053.19;5066143;28;20046;-66
2021/12/04 02:03:16;;;;;;;335.77;154.57;;;;;;;13.63;100.00;99050.25;5019727;28;20054;-65
2021/12/04 02:05:59;;;;;;;347.08;159.40;;;;;;;13.76;100.00;99055.81;5062584;28;20084;-65
2021/12/04 02:08:49;;;;;;;329.70;157.77;;;;;;;13.66;100.00;99055.31;5065117;28;20126;-65
2021/12/04 02:11:30;;;;;;;344.08;158.30;;;;;;;13.76;100.00;99055.81;5065620;28;20048;-65
2021/12/04 02:14:20;;;;;;;328.65;154.75;;;;;;;13.67;100.00;99062.19;5066551;28;20464;-65
2021/12/04 02:17:09;;;;;;;328.80;153.88;;;;;;;13.77;100.00;99073.06;5066651;28;20049;-66
2021/12/04 02:19:52;;;;;;;325.90;158.02;;;;;;;13.77;100.00;99065.28;5068702;28;20067;-65
2021/12/04 02:22:39;;;;;;;341.88;157.80;;;;;;;13.95;100.00;99072.38;5049414;28;20373;-65
2021/12/04 02:25:22;;;;;;;341.95;156.68;;;;;;;13.81;100.00;99072.03;5067489;28;20056;-65
2021/12/04 02:28:13;;;;;;;348.20;158.30;;;;;;;13.92;100.00;99075.06;5066949;28;20048;-65
2021/12/04 02:30:56;;;;;;;333.67;153.65;;;;;;;14.05;100.00;99083.22;5051084;28;20045;-65
2021/12/04 02:33:45;;;;;;;321.58;152.93;;;;;;;14.06;100.00;99085.75;5066744;28;20049;-65
2021/12/04 02:36:33;;;;;;;320.23;151.13;;;;;;;14.23;100.00;99082.53;5067054;28;20048;-65
2021/12/04 02:39:16;;;;;;;331.33;150.07;;;;;;;14.21;100.00;99093.88;5066552;28;20063;-65
2021/12/04 02:42:13;;;;;;;333.20;150.95;;;;;;;14.23;100.00;99090.31;5065595;28;20129;-66
2021/12/04 02:45:06;;;;;;;329.67;153.02;;;;;;;14.29;100.00;99091.81;5046766;28;20443;-66
2021/12/04 02:47:48;;;;;;;335.23;152.10;;;;;;;14.55;100.00;99102.03;5039522;28;20569;-65
2021/12/04 02:50:37;;;;;;;331.08;155.25;;;;;;;14.54;100.00;99105.53;5047176;28;20369;-65
2021/12/04 02:53:20;;;;;;;;;;;;;;;14.97;100.00;99106.41;5046849;28;20799;-65
2021/12/04 02:56:15;;;;;;;335.85;152.45;;;;;;;15.06;100.00;99106.06;5041852;28;19932;-65
2021/12/04 02:58:55;;;;;;;329.63;153.82;;;;;;;15.01;100.00;99101.03;5024397;28;20052;-65
2021/12/04 03:01:44;;;;;;;329.83;151.48;;;;;;;15.18;100.00;99114.16;5061306;28;20048;-65
2021/12/04 03:04:28;;;;;;;351.40;162.80;;;;;;;15.39;100.00;99109.84;5031467;28;20132;-65
2021/12/04 03:07:18;;;;;;;330.58;162.25;;;;;;;15.55;100.00;99110.91;5039443;28;20049;-65
2021/12/04 03:10:09;;;;;;;346.83;158.35;;;;;;;15.85;100.00;99113.06;5046685;28;20053;-65
2021/12/04 03:12:52;;;;;;;344.90;160.98;;;;;;;16.15;100.00;99114.25;5046409;28;20106;-65
2021/12/04 03:15:44;;;;;;;331.73;157.93;;;;;;;16.47;100.00;99112.78;5046630;28;20132;-66
2021/12/04 03:18:28;;;;;;;340.48;158.85;;;;;;;17.03;100.00;99111.84;5025683;28;20134;-66
2021/12/04 03:21:17;;;;;;;346.65;156.35;;;;;;;17.37;100.00;99111.00;5041975;28;20048;-66
2021/12/04 03:24:06;;;;;;;347.80;161.88;;;;;;;17.72;100.00;99117.84;5009209;28;20381;-66
2021/12/04 03:26:56;;;;;;;324.27;159.23;;;;;;;18.24;100.00;99121.16;5025695;28;20049;-66
2021/12/04 03:29:42;;;;;;;340.27;172.65;;;;;;;18.72;100.00;99120.25;5033219;28;20365;-64
2021/12/04 03:32:55;;;;;;;348.13;169.75;;;;;;;19.06;100.00;99131.41;5017025;28;20477;-65
2021/12/04 03:41:39;;;;;;;371.30;182.32;;;;;;;20.04;95.75;99127.28;5044002;28;20407;-66
2021/12/04 03:44:31;;;;;;;364.77;181.02;;;;;;;20.40;94.95;99124.22;5066504;27;20140;-66
2021/12/04 03:47:29;;;;;;;372.45;184.07;;;;;;;20.48;93.32;99123.72;5065201;28;20045;-66
2021/12/04 03:50:07;;;;;;;356.17;183.93;;;;;;;20.66;94.14;99125.19;5065631;28;20053;-65
2021/12/04 03:53:03;;;;;;;353.02;184.73;;;;;;;20.93;96.30;99119.91;5076248;28;20134;-66
2021/12/04 03:55:40;;;;;;;356.58;183.07;;;;;;;21.09;89.10;99127.59;5070583;28;20048;-66
2021/12/04 03:58:36;;;;;;;347.10;180.93;;;;;;;21.33;91.31;99128.63;5066091;28;20084;-66
2021/12/04 04:01:12;;;;;;;353.98;172.23;;;;;;;21.44;76.29;99131.41;5061594;28;20456;-66
2021/12/04 04:04:02;;;;;;;348.63;180.18;;;;;;;21.90;82.08;99123.84;5060279;28;20048;-66
2021/12/04 04:06:43;;;;;;;353.88;174.45;;;;;;;21.90;82.83;99129.09;5069240;28;20060;-65
2021/12/04 04:09:40;;;;;;;319.17;171.95;;;;;;;21.83;80.77;99122.59;5085619;28;20044;-65
2021/12/04 04:12:16;;;;;;;332.10;166.95;;;;;;;22.00;79.57;99126.72;5086051;28;20044;-65
2021/12/04 04:15:05;;;;;;;324.95;164.07;;;;;;;21.94;81.74;99127.09;5068209;28;20479;-66
2021/12/04 04:17:47;;;;;;;324.13;161.48;;;;;;;22.09;81.30;99131.31;5086221;28;20047;-66
2021/12/04 04:20:37;;;;;;;316.25;157.45;;;;;;;21.94;78.71;99132.34;5086041;28;20126;-66
2021/12/04 04:23:26;;;;;;;304.33;151.13;;;;;;;22.29;79.08;99129.91;5065210;28;20056;-65
2021/12/04 04:26:09;;;;;;;257.08;130.88;;;;;;;22.37;74.25;99136.28;5074117;28;20135;-66
2021/12/04 04:28:56;;;;;;;261.27;124.05;;;;;;;22.52;71.87;99124.69;5069653;28;20051;-65
2021/12/04 04:31:47;;;;;;;250.40;124.00;;;;;;;22.73;71.79;99132.00;5074823;28;20056;-64
2021/12/04 04:34:37;;;;;;;247.70;119.63;;;;;;;22.64;66.75;99136.13;5065159;28;20045;-66
2021/12/04 04:37:41;;;;;;;215.15;110.10;;;;;;;22.83;71.50;99138.25;5056097;28;20127;-65
2021/12/04 05:11:35;;;;;;;186.65;99.78;;;;;;;23.69;64.21;99144.09;5072791;28;20050;-68
2021/12/04 05:13:56;;;;;;;194.30;101.93;;;;;;;23.95;59.17;99131.56;5068389;28;20126;-66
2021/12/04 05:16:45;;;;;;;242.10;122.55;;;;;;;23.71;64.66;99136.91;5066367;28;20059;-65
2021/12/04 05:19:45;;;;;;;213.65;107.60;;;;;;;24.07;60.80;99135.03;5052088;28;20106;-66
2021/12/04 05:22:23;;;;;;;194.75;97.60;;;;;;;23.83;61.71;99138.63;5077332;28;20085;-66
2021/12/04 05:25:13;;;;;;;176.32;83.82;;;;;;;23.88;55.45;99131.19;5079115;28;20051;-65
2021/12/04 05:27:54;;;;;;;173.85;85.25;;;;;;;24.14;59.63;99129.16;5063213;28;20044;-66
2021/12/04 05:30:51;;;;;;;170.00;93.65;;;;;;;24.08;61.40;99118.28;5064539;28;20553;-68
2021/12/04 05:33:28;;;;;;;199.77;93.95;;;;;;;24.30;59.76;99120.94;5076532;28;20659;-67
2021/12/04 05:36:17;;;;;;;142.70;74.78;;;;;;;24.17;59.39;99120.19;5050809;28;20047;-66
2021/12/04 05:39:00;;;;;;;118.00;59.97;;;;;;;24.20;54.37;99122.56;5069220;28;20097;-67
2021/12/04 05:41:59;;;;;;;127.35;64.93;;;;;;;24.31;59.89;99109.44;5070579;28;20468;-66
2021/12/04 05:44:43;;;;;;;116.70;62.72;;;;;;;24.66;57.65;99110.06;5075729;27;20137;-66
2021/12/04 05:47:44;;;;;;;104.05;56.38;;;;;;;24.68;61.50;99096.78;5068881;28;20468;-66
2021/12/04 05:54:28;;;;;;;101.75;49.95;;;;;;;24.62;58.45;99092.00;5080383;28;20131;-67
2021/12/04 05:56:45;;;;;;;101.05;53.38;;;;;;;24.74;56.22;99081.28;5052351;28;20040;-67
2021/12/04 05:59:35;;;;;;;104.05;52.97;;;;;;;24.67;59.80;99064.31;5065247;28;20123;-67
2021/12/04 06:02:24;;;;;;;89.65;47.83;;;;;;;24.62;56.06;99058.59;5061734;28;20480;-67
2021/12/04 06:05:13;;;;;;;92.20;48.78;;;;;;;24.23;53.39;99054.75;5064510;28;20048;-67
2021/12/04 06:07:55;;;;;;;114.53;51.30;;;;;;;24.49;59.86;99050.03;5060637;28;20054;-67
2021/12/04 06:10:45;;;;;;;94.50;49.53;;;;;;;24.62;55.87;99039.31;5067316;28;20051;-67
2021/12/04 06:13:28;;;;;;;88.63;48.17;;;;;;;24.70;55.36;99039.50;5058544;28;20523;-67
2021/12/04 06:16:17;;;;;;;84.57;46.60;;;;;;;24.94;59.01;99032.25;5031966;28;20063;-67
2021/12/04 06:19:09;;;;;;;80.35;45.08;;;;;;;25.13;52.40;99036.81;5065895;28;20049;-66
2021/12/04 06:25:10;;;;;;;80.25;43.97;;;;;;;24.84;51.91;99027.81;5034630;28;20605;-67
2021/12/04 06:28:01;;;;;;;99.60;46.93;;;;;;;24.77;57.31;99007.25;5061106;28;20040;-67
2021/12/04 06:30:44;;;;;;;86.53;44.67;;;;;;;24.71;52.81;98997.22;5064420;28;20285;-67
2021/12/04 06:33:34;;;;;;;70.30;39.80;;;;;;;24.65;49.88;98994.28;5064690;28;20055;-67
2021/12/04 06:36:18;;;;;;;77.72;44.45;;;;;;;24.56;53.46;98990.59;5071955;28;20142;-67
2021/12/04 06:39:09;;;;;;;87.28;45.30;;;;;;;24.41;52.35;98989.22;5048057;28;20074;-66
2021/12/04 06:41:51;;;;;;;92.45;46.15;;;;;;;24.66;53.07;98972.22;5064883;28;20053;-66
2021/12/04 06:44:48;;;;;;;87.60;46.10;;;;;;;24.81;55.71;98976.22;5054375;28;20051;-68
2021/12/04 06:47:25;;;;;;;84.85;43.63;;;;;;;24.95;66.12;98962.75;5048001;28;20051;-69
2021/12/04 06:50:28;;;;;;;92.82;41.20;;;;;;;24.52;51.53;98976.00;5049806;28;20040;-68
2021/12/04 06:53:26;;;;;;;98.78;44.38;;;;;;;24.65;57.62;98955.59;5029640;28;20279;-68
2021/12/04 06:56:17;;;;;;;86.63;45.92;;;;;;;24.47;57.19;98956.25;5061339;28;20976;-66
2021/12/04 06:59:14;;;;;;;82.82;45.50;;;;;;;24.53;57.37;98956.59;5062400;28;20036;-66
2021/12/04 07:01:57;;;;;;;92.38;46.85;;;;;;;24.55;54.26;98948.56;5058126;28;20837;-68
2021/12/04 07:04:47;;;;;;;102.18;50.90;;;;;;;24.47;53.94;98941.28;5056511;28;20055;-69
2021/12/04 07:07:29;;;;;;;95.38;47.55;;;;;;;24.52;57.37;98939.09;5064901;28;20102;-67
2021/12/04 07:10:19;;;;;;;97.65;49.22;;;;;;;24.68;62.01;98934.22;5064173;28;20701;-68
2021/12/04 07:13:02;;;;;;;97.10;50.25;;;;;;;24.54;58.51;98925.81;5064647;28;20048;-69
2021/12/04 07:16:01;;;;;;;105.35;53.47;;;;;;;24.60;59.66;98928.75;5065795;28;20126;-68
2021/12/04 07:18:44;;;;;;;105.40;54.42;;;;;;;24.51;59.69;98915.50;5065165;28;20048;-68
2021/12/04 07:21:34;;;;;;;94.97;53.45;;;;;;;24.26;53.65;98922.84;5062525;28;20049;-68
2021/12/04 07:24:17;;;;;;;101.50;55.10;;;;;;;24.40;58.23;98919.06;5062499;28;20050;-67
2021/12/04 07:27:07;;;;;;;106.93;55.03;;;;;;;24.25;57.16;98915.91;5059912;28;20123;-66
2021/12/04 07:29:57;;;;;;;97.38;55.08;;;;;;;24.28;57.39;98909.53;5065363;28;20041;-68
2021/12/04 07:32:41;;;;;;;98.40;52.63;;;;;;;24.51;60.57;98911.09;5043908;28;20056;-66
2021/12/04 07:35:31;;;;;;;105.72;54.67;;;;;;;24.42;57.03;98896.06;5046430;28;20045;-67
2021/12/04 07:38:14;;;;;;;113.82;56.42;;;;;;;24.45;59.92;98890.53;5076652;28;20047;-68
2021/12/04 07:41:04;;;;;;;98.30;50.20;;;;;;;24.32;55.38;98896.00;5067869;28;20134;-67
2021/12/04 07:44:01;;;;;;;99.20;50.67;;;;;;;24.33;56.79;98888.94;5061990;28;20098;-67
2021/12/04 07:46:41;;;;;;;89.05;45.58;;;;;;;24.31;57.13;98881.16;5069086;28;20052;-67
2021/12/04 07:49:31;;;;;;;78.00;42.75;;;;;;;24.28;53.52;98877.94;5075706;28;20044;-67
2021/12/04 07:52:14;;;;;;;73.10;41.15;;;;;;;24.24;56.17;98869.47;5065685;28;20539;-67
2021/12/04 07:55:05;;;;;;;73.47;40.20;;;;;;;24.28;56.55;98859.50;5066843;28;20052;-65
2021/12/04 07:57:48;;;;;;;66.32;39.45;;;;;;;24.27;54.33;98861.28;5067320;28;20041;-67
2021/12/04 08:00:38;;;;;;;80.78;40.22;;;;;;;24.30;54.39;98855.78;5061667;28;20159;-66
2021/12/04 08:03:27;;;;;;;85.03;43.78;;;;;;;24.22;54.40;98849.47;5040696;28;20040;-68
2021/12/04 08:06:16;;;;;;;68.30;38.35;;;;;;;24.17;54.82;98839.31;5062836;28;20132;-67
2021/12/04 08:08:59;;;;;;;73.55;37.65;;;;;;;24.20;56.64;98832.94;5064363;28;20068;-67
2021/12/04 08:11:50;;;;;;;90.63;39.95;;;;;;;24.16;55.38;98831.53;5065736;28;20044;-68
2021/12/04 08:14:33;;;;;;;81.30;41.97;;;;;;;24.04;53.72;98833.38;5062331;28;20051;-68
2021/12/04 08:17:29;;;;;;;78.38;40.65;;;;;;;24.11;55.50;98820.53;5065615;28;20356;-68
2021/12/04 08:20:06;;;;;;;74.82;40.75;;;;;;;24.02;51.76;98817.69;5080186;28;20052;-67
2021/12/04 08:22:56;;;;;;;74.15;39.45;;;;;;;24.09;53.29;98811.94;5068875;28;20155;-68
2021/12/04 08:25:53;;;;;;;93.75;47.72;;;;;;;24.03;52.75;98800.09;5064891;28;20056;-69
2021/12/04 08:28:43;;;;;;;100.70;48.00;;;;;;;24.15;57.09;98798.25;5050066;28;20127;-67
2021/12/04 08:31:26;;;;;;;100.88;50.08;;;;;;;24.14;54.93;98796.59;5072692;28;20056;-66
2021/12/04 08:34:23;;;;;;;104.95;51.75;;;;;;;24.19;57.67;98791.75;5063645;28;20147;-66
2021/12/04 08:36:59;;;;;;;92.00;48.17;;;;;;;24.16;57.90;98784.97;5068891;28;20072;-66
2021/12/04 08:39:49;;;;;;;87.03;47.10;;;;;;;24.15;57.85;98779.84;5087089;28;20047;-65
2021/12/04 08:42:39;;;;;;;98.05;48.25;;;;;;;24.12;56.81;98780.91;5077124;28;20094;-66
2021/12/04 08:45:36;;;;;;;89.22;44.97;;;;;;;24.11;55.91;98781.88;5059028;28;20063;-65
2021/12/04 08:48:13;;;;;;;108.53;47.03;;;;;;;24.03;57.43;98768.53;5051690;28;20058;-67
2021/12/04 08:51:05;;;;;;;101.10;46.67;;;;;;;24.12;58.79;98766.91;5046246;28;20087;-63
2021/12/04 08:53:47;;;;;;;84.43;42.63;;;;;;;24.01;57.35;98767.84;5054039;28;20177;-63
2021/12/04 08:56:37;;;;;;;96.35;43.45;;;;;;;23.97;57.78;98764.63;5052339;28;20481;-63
2021/12/04 08:59:27;;;;;;;82.57;41.50;;;;;;;23.98;57.72;98753.13;5054760;28;20076;-64
2021/12/04 09:02:10;;;;;;;82.90;44.88;;;;;;;24.01;57.98;98752.88;5028196;28;20071;-65
2021/12/04 09:05:00;;;;;;;87.93;41.70;;;;;;;23.98;59.13;98750.50;5047486;28;20826;-61
2021/12/04 09:07:43;;;;;;;70.38;37.15;;;;;;;23.89;56.69;98751.25;5048148;28;20076;-65
2021/12/04 09:10:34;;;;;;;78.75;37.88;;;;;;;23.85;56.49;98744.59;5046830;28;20452;-64
2021/12/04 09:13:28;;;;;;;78.00;39.00;;;;;;;23.80;56.60;98743.28;5054054;28;20498;-65
2021/12/04 09:16:12;;;;;;;77.55;39.55;;;;;;;23.72;56.16;98732.56;5054565;28;20045;-67
2021/12/04 09:19:02;;;;;;;80.70;39.92;;;;;;;23.84;57.48;98739.47;5059451;28;20063;-67
2021/12/04 09:21:45;;;;;;;77.43;38.60;;;;;;;23.76;57.41;98734.84;5050732;28;20049;-67
2021/12/04 09:24:40;;;;;;;78.70;37.17;;;;;;;23.72;57.18;98738.66;5054053;28;20037;-68
2021/12/04 09:59:24;;;;;;;76.80;42.15;;;;;;;23.59;58.26;98716.97;5065926;28;20427;-68
2021/12/04 10:14:45;;;;;;;78.97;41.72;;;;;;;23.16;64.10;98696.78;5044394;28;20052;-66
2021/12/04 10:17:42;;;;;;;84.45;42.10;;;;;;;23.18;60.79;98696.66;5052974;28;20143;-66
2021/12/04 10:32:41;;;;;;;78.40;43.03;;;;;;;22.96;66.77;98708.09;5071238;28;20550;-65
2021/12/04 10:35:31;;;;;;;92.05;39.75;;;;;;;22.92;64.24;98704.03;5029460;28;20136;-66
2021/12/04 10:38:39;;;;;;;84.45;37.92;;;;;;;22.83;63.82;98696.88;5043325;28;20060;-65
2021/12/04 10:41:17;;;;;;;73.97;39.25;;;;;;;22.83;64.54;98699.50;5066156;28;20052;-66
2021/12/04 10:44:33;;;;;;;86.45;38.58;;;;;;;22.79;65.74;98705.97;5050661;28;20587;-67
2021/12/04 10:47:25;;;;;;;78.63;38.03;;;;;;;22.73;65.28;98706.44;5035583;28;20071;-66
2021/12/04 10:50:29;;;;;;;74.50;38.37;;;;;;;22.65;66.06;98698.31;5075559;28;20039;-67
2021/12/04 10:53:33;;;;;;;70.05;37.50;;;;;;;22.61;68.00;98697.72;5041080;28;20122;-67
2021/12/04 10:56:37;;;;;;;76.28;38.28;;;;;;;22.48;68.56;98702.28;5055709;28;20048;-67
2021/12/04 10:59:40;;;;;;;85.45;40.00;;;;;;;22.49;68.99;98706.56;5067971;28;20040;-66
2021/12/04 11:03:01;;;;;;;78.78;42.17;;;;;;;22.37;71.08;98699.63;5049294;28;20060;-66
2021/12/04 11:19:11;;;;;;;87.28;45.40;;;;;;;21.95;74.09;98709.00;5063718;28;20060;-67
2021/12/04 11:37:13;;;;;;;103.20;50.45;;;;;;;21.15;82.21;98702.75;5052292;28;20549;-69
2021/12/04 11:42:54;;;;;;;101.60;52.83;;;;;;;20.90;84.14;98711.53;5053626;28;20056;-67
2021/12/04 11:48:48;;;;;;;104.63;54.22;;;;;;;20.69;88.33;98711.25;5061675;28;20040;-66
2021/12/04 11:51:38;;;;;;;111.40;56.13;;;;;;;20.57;89.33;98709.53;5039635;28;20071;-66
2021/12/04 11:54:32;;;;;;;111.88;56.72;;;;;;;20.44;88.66;98713.91;5053029;28;20517;-67
2021/12/04 11:57:17;;;;;;;106.57;55.60;;;;;;;20.39;91.06;98721.25;5059464;28;20709;-68
2021/12/04 12:00:15;;;;;;;117.13;55.63;;;;;;;20.30;91.80;98717.47;5048370;28;20052;-67
2021/12/04 12:03:19;;;;;;;112.07;54.97;;;;;;;20.20;92.29;98719.88;5047474;28;20125;-68
2021/12/04 12:06:10;;;;;;;112.03;56.75;;;;;;;20.09;93.06;98717.19;5028471;28;20052;-66
2021/12/04 12:09:21;;;;;;;128.13;57.28;;;;;;;19.99;93.84;98721.34;5073812;28;20052;-66
2021/12/04 12:12:20;;;;;;;108.43;57.42;;;;;;;19.88;96.07;98721.22;5083152;28;20499;-67
2021/12/04 12:14:58;;;;;;;125.07;59.35;;;;;;;19.77;96.86;98719.34;5063707;28;20048;-66
2021/12/04 12:17:47;;;;;;;131.82;63.35;;;;;;;19.70;97.32;98720.69;5060722;28;20048;-70
2021/12/04 12:20:59;;;;;;;135.48;58.95;;;;;;;19.66;98.89;98732.28;5069010;28;20345;-67
2021/12/04 12:36:32;;;;;;;140.30;65.50;;;;;;;19.32;100.00;98723.16;5068565;28;20037;-69
2021/12/04 12:39:15;;;;;;;153.57;65.25;;;;;;;19.26;100.00;98720.13;5033945;28;20044;-65
2021/12/04 12:42:05;;;;;;;147.68;68.93;;;;;;;19.15;100.00;98731.28;5047598;28;20044;-66
2021/12/04 12:44:47;;;;;;;149.20;68.25;;;;;;;19.08;100.00;98737.78;5071724;28;20045;-66
2021/12/04 12:47:54;;;;;;;138.98;65.68;;;;;;;19.07;100.00;98736.16;5066305;28;20094;-65
2021/12/04 12:50:39;;;;;;;145.13;65.25;;;;;;;19.04;100.00;98736.34;5058567;28;20486;-66
2021/12/04 12:53:29;;;;;;;137.40;67.65;;;;;;;18.99;100.00;98743.63;5055902;28;20048;-66
2021/12/04 12:56:20;;;;;;;157.00;68.55;;;;;;;18.91;100.00;98753.72;5051749;28;20511;-66
2021/12/04 12:59:32;;;;;;;154.30;68.68;;;;;;;18.92;100.00;98763.19;5034243;28;20033;-67
2021/12/04 13:12:14;;;;;;;144.52;69.53;;;;;;;18.73;100.00;98774.81;5067604;28;20525;-68
2021/12/04 13:15:06;;;;;;;143.05;64.43;;;;;;;18.72;100.00;98778.34;5047959;28;20048;-67
2021/12/04 13:17:50;;;;;;;155.40;69.07;;;;;;;18.68;100.00;98776.84;5061181;28;20044;-69
2021/12/04 13:20:40;;;;;;;162.18;68.13;;;;;;;18.59;100.00;98779.19;5042683;28;20056;-68
2021/12/04 13:23:23;;;;;;;142.32;69.78;;;;;;;18.56;100.00;98768.91;5036493;28;20107;-70
2021/12/04 13:26:18;;;;;;;151.45;66.47;;;;;;;18.50;100.00;98772.72;5060530;28;20040;-68
2021/12/04 13:29:10;;;;;;;154.63;68.93;;;;;;;18.46;100.00;98778.22;5069375;28;20032;-68
2021/12/04 13:31:53;;;;;;;142.27;67.78;;;;;;;18.42;100.00;98787.16;5072409;28;20059;-69
2021/12/04 13:34:52;;;;;;;139.77;69.35;;;;;;;18.40;100.00;98792.47;5051319;28;20748;-68
2021/12/04 13:37:30;;;;;;;159.75;71.03;;;;;;;18.33;100.00;98799.00;5034144;28;20593;-68
2021/12/04 13:40:21;;;;;;;152.40;69.60;;;;;;;18.27;100.00;98797.59;5067099;28;20053;-71
2021/12/04 13:43:03;;;;;;;151.20;71.60;;;;;;;18.25;100.00;98801.22;5051882;28;20048;-71
2021/12/04 13:46:08;;;;;;;141.93;69.05;;;;;;;18.21;100.00;98805.75;5046245;28;20056;-70
2021/12/04 13:49:03;;;;;;;156.93;70.13;;;;;;;18.18;100.00;98805.97;5056893;28;20047;-70
2021/12/04 13:52:02;;;;;;;148.23;70.68;;;;;;;18.17;100.00;98808.66;5062996;28;20041;-70
2021/12/04 13:54:49;;;;;;;164.60;74.03;;;;;;;18.10;100.00;98810.78;5039726;28;20122;-70
2021/12/04 13:57:39;;;;;;;165.13;77.35;;;;;;;18.08;100.00;98817.00;5045153;28;20476;-71
2021/12/04 14:00:29;;;;;;;177.82;80.93;;;;;;;18.04;100.00;98811.13;4690515;28;9999768;-72
2021/12/04 14:03:20;;;;;;;164.07;79.10;;;;;;;18.00;100.00;98819.22;5046996;28;20559;-71
2021/12/04 14:06:03;;;;;;;160.27;76.90;;;;;;;17.95;100.00;98817.72;5047771;28;20045;-69
2021/12/04 14:09:16;;;;;;;168.85;75.38;;;;;;;17.97;100.00;98823.69;5046656;28;20064;-70
2021/12/04 14:12:06;;;;;;;161.52;75.03;;;;;;;17.95;100.00;98833.38;5074573;28;20105;-72
2021/12/04 14:14:56;;;;;;;149.65;75.07;;;;;;;17.93;100.00;98835.22;5055178;28;20120;-71
2021/12/04 14:17:39;;;;;;;180.82;78.75;;;;;;;17.87;100.00;98832.97;5054485;28;20080;-69
2021/12/04 14:20:30;;;;;;;150.48;75.35;;;;;;;17.89;100.00;98840.69;5022742;28;20044;-73
2021/12/04 14:23:14;;;;;;;156.23;75.18;;;;;;;17.85;100.00;98842.63;5046001;28;20052;-71
2021/12/04 14:26:05;;;;;;;164.82;78.00;;;;;;;17.80;100.00;98847.25;5030035;28;20058;-69
2021/12/04 14:28:58;;;;;;;167.40;76.93;;;;;;;17.78;100.00;98843.91;5052527;28;20048;-69
2021/12/04 14:31:52;;;;;;;159.25;77.43;;;;;;;17.76;100.00;98853.59;5067571;28;20116;-70
2021/12/04 14:34:35;;;;;;;160.23;79.07;;;;;;;17.74;100.00;98847.59;5076213;28;20052;-73
2021/12/04 14:37:25;;;;;;;147.27;79.93;;;;;;;17.72;100.00;98852.06;5057671;28;20135;-71
2021/12/04 14:40:14;;;;;;;174.30;87.47;;;;;;;17.69;100.00;98852.25;5060569;28;20487;-72
2021/12/04 14:43:06;;;;;;;250.32;132.55;;;;;;;17.64;100.00;98856.06;5069255;28;20083;-73
2021/12/04 14:46:04;;;;;;;313.15;171.25;;;;;;;17.62;100.00;98861.34;5019554;28;20059;-72
2021/12/04 14:48:44;;;;;;;270.52;138.85;;;;;;;17.58;100.00;98849.34;5040760;28;20126;-72
2021/12/04 14:51:35;;;;;;;251.07;118.50;;;;;;;17.51;100.00;98850.63;5063629;28;20154;-69
2021/12/04 14:54:18;;;;;;;207.75;108.93;;;;;;;17.49;100.00;98865.50;5046681;28;20484;-71
2021/12/04 14:57:16;;;;;;;213.48;118.13;;;;;;;17.45;100.00;98859.63;5047418;28;20123;-72
2021/12/04 15:00:13;;;;;;;191.80;103.55;;;;;;;17.49;100.00;98865.50;5062200;28;20102;-71
2021/12/04 15:03:13;;;;;;;192.65;100.35;;;;;;;17.49;100.00;98865.50;5048306;28;20638;-71
2021/12/04 15:06:03;;;;;;;197.93;99.53;;;;;;;17.47;100.00;98864.75;5030113;28;20040;-71
2021/12/04 15:09:10;;;;;;;180.45;93.60;;;;;;;17.49;100.00;98865.50;5043718;28;20304;-70
2021/12/04 15:11:49;;;;;;;174.18;91.00;;;;;;;17.44;100.00;98857.09;5044914;28;20052;-70
2021/12/04 15:14:38;;;;;;;195.38;90.10;;;;;;;17.38;100.00;98863.50;5064838;28;20044;-69
2021/12/04 15:17:28;;;;;;;164.40;88.80;;;;;;;17.41;100.00;98876.34;5046807;28;20526;-69
2021/12/04 15:20:18;;;;;;;173.15;89.20;;;;;;;17.38;100.00;98873.91;5046773;28;20052;-70
2021/12/04 15:23:30;;;;;;;170.45;90.22;;;;;;;17.35;100.00;98881.03;5016534;28;20075;-67
2021/12/04 15:26:19;;;;;;;203.30;100.78;;;;;;;17.34;100.00;98881.97;5067682;28;20487;-70
2021/12/04 15:29:09;;;;;;;189.75;97.90;;;;;;;17.33;100.00;98890.69;5048888;28;20048;-70
2021/12/04 15:31:53;;;;;;;213.52;103.43;;;;;;;17.35;100.00;98891.47;5049905;28;20074;-70
2021/12/04 15:35:03;;;;;;;183.00;99.32;;;;;;;17.31;100.00;98887.34;5045739;28;20067;-70